Impacts TAF Board
For situational awareness. Not to be used for flight planning purposes.
IDs:

KPGA - Page Muni, AZ, US

Issued at 1739 UTC 08 Aug 2020
Updated at 2152 UTC 08 Aug 2020
Potential Impact None Slight Moderate High
Time2053Z 08/22Z 08/23Z 09/00Z 09/01Z 09/02Z 09/03Z 09/04Z 09/05Z 09/06Z 09/07Z 09/08Z 09/09Z 09/10Z>>
Type OBS PRVL PRVL PRVL PRVL PRVL PRVL PRVL PRVL PRVL PRVL PRVL PRVL PRVL
VIS 10 >6 >6 >6 >6 >6 >6 >6 >6 >6 >6 >6 >6 >6
CIG -- -- -- -- -- -- -- -- -- -- -- -- -- --
Cover CLR SKC SKC SKC SKC SKC SKC SKC SKC SKC SKC SKC SKC SKC
FltCat VFR VFR VFR VFR VFR VFR VFR VFR VFR VFR VFR VFR VFR VFR
WX -- -- -- -- -- -- -- -- -- -- -- -- -- --
WDir VRB VRB VRB VRB VRB VRB VRB VRB VRB VRB VRB VRB VRB VRB
WSpd 4 6 6 6 6 6 6 6 6 6 6 6 6 6
WGst -- -- -- -- -- -- -- -- -- -- -- -- -- --
Raw TAF
KPGA 081739Z 0818/0918 VRB06KT P6SM SKC

Raw METAR
KPGA 082053Z AUTO VRB04KT 10SM CLR 36/M06 A3009 RMK AO2 SLP112 T03561061 56020 TSNO
KPGA 081953Z AUTO 36006KT 10SM CLR 34/M06 A3011 RMK AO2 SLP120 T03441061 TSNO
KPGA 081853Z AUTO 34007G16KT 10SM CLR 33/M06 A3013 RMK AO2 SLP126 T03281056 TSNO

METAR Board
Radar Display
Forecast Discussion
For situational awareness. Not to be used for flight planning purposes.